createdAt,value
2022-08-14T00:01:36.294Z,14.50
2022-08-14T00:04:03.331Z,14.50
2022-08-14T00:06:50.078Z,14.70
2022-08-14T00:09:16.941Z,14.80
2022-08-14T00:11:44.700Z,15.00
2022-08-14T00:14:12.410Z,15.00
2022-08-14T00:16:44.992Z,14.80
2022-08-14T00:19:18.522Z,14.50
2022-08-14T00:21:50.885Z,14.30
2022-08-14T00:24:28.139Z,14.00
2022-08-14T00:27:01.901Z,13.90
2022-08-14T00:29:33.029Z,14.00
2022-08-14T00:32:52.007Z,13.90
2022-08-14T00:34:56.478Z,13.90
2022-08-14T00:37:23.828Z,13.80
2022-08-14T00:39:51.098Z,13.70
2022-08-14T00:42:55.442Z,13.60
2022-08-14T00:45:11.572Z,13.50
2022-08-14T00:47:45.047Z,13.60
2022-08-14T00:50:17.533Z,13.50
2022-08-14T00:52:50.884Z,13.60
2022-08-14T00:55:20.970Z,13.60
2022-08-14T00:58:11.455Z,13.50
2022-08-14T01:00:47.510Z,13.50
2022-08-14T01:03:26.527Z,13.60
2022-08-14T01:05:59.059Z,13.70
2022-08-14T01:08:58.131Z,13.70
2022-08-14T01:11:19.115Z,13.60
2022-08-14T01:13:55.749Z,13.50
2022-08-14T01:16:28.030Z,13.30
2022-08-14T01:19:16.193Z,13.20
2022-08-14T01:21:47.016Z,13.20
2022-08-14T01:24:28.928Z,13.00
2022-08-14T01:27:00.016Z,13.00
2022-08-14T01:29:59.034Z,12.90
2022-08-14T01:32:22.972Z,13.10
2022-08-14T01:35:20.920Z,13.00
2022-08-14T01:37:56.079Z,13.00
2022-08-14T01:40:36.672Z,12.90
2022-08-14T01:43:18.640Z,13.10
2022-08-14T01:45:57.859Z,13.10
2022-08-14T01:48:37.440Z,13.20
2022-08-14T01:51:06.094Z,13.30
2022-08-14T01:53:54.824Z,13.30
2022-08-14T01:56:39.394Z,13.40
2022-08-14T01:59:38.012Z,13.30
2022-08-14T02:02:19.690Z,13.10
2022-08-14T02:04:57.273Z,12.80
2022-08-14T02:07:34.534Z,12.80
2022-08-14T02:10:15.645Z,13.10
2022-08-14T02:12:48.922Z,13.30
2022-08-14T02:15:21.811Z,13.20
2022-08-14T02:17:50.449Z,13.00
2022-08-14T02:20:23.501Z,12.80
2022-08-14T02:22:54.599Z,12.60
2022-08-14T02:25:22.695Z,12.40
2022-08-14T02:28:23.734Z,12.30
2022-08-14T02:30:43.144Z,12.20
2022-08-14T02:33:10.736Z,12.50
2022-08-14T02:35:41.331Z,12.70
2022-08-14T02:38:11.402Z,12.80
2022-08-14T02:40:39.141Z,12.50
2022-08-14T02:43:07.852Z,12.30
2022-08-14T02:45:38.382Z,12.20
2022-08-14T02:49:01.809Z,12.20
2022-08-14T02:51:01.427Z,12.10
2022-08-14T02:53:33.495Z,12.00
2022-08-14T02:56:02.906Z,12.00
2022-08-14T02:58:33.358Z,12.00
2022-08-14T03:01:01.438Z,11.90
2022-08-14T03:03:31.804Z,11.90
2022-08-14T03:06:02.635Z,11.80
2022-08-14T03:08:32.088Z,11.80
2022-08-14T03:11:06.593Z,11.90
2022-08-14T03:13:35.727Z,11.90
2022-08-14T03:16:09.085Z,12.00
2022-08-14T03:18:48.526Z,12.20
2022-08-14T03:21:22.030Z,12.20
2022-08-14T03:23:51.039Z,12.00
2022-08-14T03:26:30.242Z,12.00
2022-08-14T03:29:00.964Z,11.90
2022-08-14T03:31:29.265Z,11.90
2022-08-14T03:33:56.816Z,11.80
2022-08-14T03:37:29.034Z,11.80
2022-08-14T03:39:22.061Z,11.80
2022-08-14T03:41:55.344Z,11.70
2022-08-14T03:45:19.936Z,11.60
2022-08-14T03:47:12.058Z,11.60
2022-08-14T03:49:42.241Z,11.50
2022-08-14T03:52:38.367Z,11.40
2022-08-14T03:54:58.826Z,11.30
2022-08-14T03:57:25.588Z,11.20
2022-08-14T03:59:52.411Z,11.20
2022-08-14T04:02:32.360Z,11.20
2022-08-14T04:05:11.599Z,11.20
2022-08-14T04:07:49.406Z,11.10
2022-08-14T04:10:17.640Z,11.20
2022-08-14T04:12:59.992Z,11.50
2022-08-14T04:15:30.885Z,11.90
2022-08-14T04:18:02.373Z,12.00
2022-08-14T04:20:31.333Z,11.90
2022-08-14T04:22:58.128Z,11.80
2022-08-14T04:25:24.885Z,11.70
2022-08-14T04:28:02.471Z,11.70
2022-08-14T04:30:42.246Z,11.70
2022-08-14T04:33:17.166Z,11.60
2022-08-14T04:35:56.915Z,11.60
2022-08-14T04:38:43.081Z,11.60
2022-08-14T04:41:33.035Z,11.70
2022-08-14T04:43:59.829Z,11.80
2022-08-14T04:46:55.318Z,11.80
2022-08-14T04:49:15.525Z,11.80
2022-08-14T04:51:46.898Z,11.80
2022-08-14T04:54:27.216Z,11.90
2022-08-14T04:56:57.621Z,11.90
2022-08-14T04:59:25.207Z,12.10
2022-08-14T05:01:56.918Z,12.30
2022-08-14T05:04:25.023Z,12.40
2022-08-14T05:06:55.143Z,12.50
2022-08-14T05:09:24.255Z,12.50
2022-08-14T05:11:51.594Z,12.60
2022-08-14T05:14:46.034Z,12.80
2022-08-14T05:17:10.516Z,13.00
2022-08-14T05:19:44.769Z,13.50
2022-08-14T05:22:27.020Z,14.40
2022-08-14T05:24:54.468Z,15.10
2022-08-14T05:27:22.902Z,15.30
2022-08-14T05:29:52.982Z,15.10
2022-08-14T05:32:20.245Z,14.90
2022-08-14T05:34:47.384Z,14.90
2022-08-14T05:37:15.348Z,15.10
2022-08-14T05:39:43.336Z,15.40
2022-08-14T05:42:21.992Z,15.80
2022-08-14T05:44:55.509Z,16.60
2022-08-14T05:47:23.493Z,17.40
2022-08-14T05:49:51.669Z,17.60
2022-08-14T05:52:26.395Z,18.00
2022-08-14T05:55:09.600Z,18.60
2022-08-14T05:57:50.097Z,19.80
2022-08-14T06:00:24.984Z,20.20
2022-08-14T06:02:56.774Z,22.10
2022-08-14T06:05:24.451Z,24.30
2022-08-14T06:07:57.431Z,25.70
2022-08-14T06:10:24.299Z,25.70
2022-08-14T06:12:55.530Z,25.90
2022-08-14T06:15:32.505Z,26.60
2022-08-14T06:18:00.623Z,28.10
2022-08-14T06:20:30.121Z,28.10
2022-08-14T06:22:57.446Z,29.50
2022-08-14T06:25:26.753Z,29.20
2022-08-14T06:27:55.092Z,29.20
2022-08-14T06:30:30.279Z,29.00
2022-08-14T06:33:15.688Z,29.10
2022-08-14T06:35:43.338Z,28.80
2022-08-14T06:38:18.723Z,27.60
2022-08-14T06:40:46.201Z,26.90
2022-08-14T06:43:15.511Z,26.10
2022-08-14T06:45:53.701Z,25.90
2022-08-14T06:48:24.089Z,25.30
2022-08-14T06:50:57.970Z,24.90
2022-08-14T06:53:27.858Z,24.50
2022-08-14T06:55:59.529Z,23.70
2022-08-14T06:58:29.170Z,22.90
2022-08-14T07:01:16.074Z,23.10
2022-08-14T07:04:01.340Z,22.80
2022-08-14T07:06:46.242Z,22.60
2022-08-14T07:09:19.820Z,22.70
2022-08-14T07:11:49.733Z,23.60
2022-08-14T07:14:16.542Z,25.20
2022-08-14T07:16:43.492Z,27.50
2022-08-14T07:19:11.518Z,29.30
2022-08-14T07:21:39.516Z,28.00
2022-08-14T07:24:09.776Z,27.00
2022-08-14T07:26:49.141Z,27.70
2022-08-14T07:29:17.701Z,28.90
2022-08-14T07:31:49.555Z,29.80
2022-08-14T07:34:35.918Z,31.20
2022-08-14T07:37:03.812Z,32.90
2022-08-14T07:39:30.652Z,32.30
2022-08-14T07:42:01.912Z,32.90
2022-08-14T07:44:36.114Z,31.90
2022-08-14T07:47:15.859Z,32.50
2022-08-14T07:50:08.143Z,33.10
2022-08-14T07:52:38.269Z,33.50
2022-08-14T07:55:06.552Z,33.90
2022-08-14T07:57:33.633Z,33.90
2022-08-14T08:00:01.598Z,33.20
2022-08-14T08:02:44.226Z,32.80
2022-08-14T08:05:14.397Z,32.30
2022-08-14T08:07:44.355Z,32.60
2022-08-14T08:11:01.990Z,32.80
2022-08-14T08:13:23.968Z,34.40
2022-08-14T08:15:54.041Z,33.50
2022-08-14T08:18:29.045Z,34.30
2022-08-14T08:20:59.480Z,34.90
2022-08-14T08:23:39.978Z,34.80
2022-08-14T08:26:07.787Z,34.40
2022-08-14T08:28:34.745Z,32.90
2022-08-14T08:31:05.686Z,31.60
2022-08-14T08:33:37.270Z,30.70
2022-08-14T08:36:12.908Z,31.30
2022-08-14T08:39:15.789Z,31.40
2022-08-14T08:41:43.470Z,32.40
2022-08-14T08:44:17.313Z,32.10
2022-08-14T08:47:01.621Z,30.80
2022-08-14T08:49:43.257Z,30.70
2022-08-14T08:52:24.893Z,31.10
2022-08-14T08:54:57.937Z,30.10
2022-08-14T08:57:26.119Z,30.20
2022-08-14T08:59:55.116Z,29.90
2022-08-14T09:02:26.157Z,28.60
2022-08-14T09:05:02.059Z,29.30
2022-08-14T09:07:28.956Z,29.60
2022-08-14T09:09:59.135Z,29.40
2022-08-14T09:12:32.278Z,30.00
2022-08-14T09:15:12.154Z,30.70
2022-08-14T09:17:42.115Z,31.20
2022-08-14T09:20:11.604Z,32.20
2022-08-14T09:22:48.241Z,31.20
2022-08-14T09:25:17.392Z,30.90
2022-08-14T09:27:47.616Z,30.20
2022-08-14T09:30:32.286Z,30.80
2022-08-14T09:33:08.989Z,32.00
2022-08-14T09:36:20.533Z,32.10
2022-08-14T09:39:21.095Z,30.70
2022-08-14T09:42:21.649Z,30.90
2022-08-14T09:45:09.158Z,32.90
2022-08-14T09:47:46.615Z,33.50
2022-08-14T09:50:20.046Z,34.20
2022-08-14T09:52:54.967Z,35.00
2022-08-14T09:55:25.905Z,34.70
2022-08-14T09:58:19.640Z,33.30
2022-08-14T10:00:59.364Z,33.20
2022-08-14T10:03:34.260Z,32.60
2022-08-14T10:06:07.336Z,32.40
2022-08-14T10:08:50.911Z,32.70
2022-08-14T10:11:23.083Z,33.00
2022-08-14T10:13:54.264Z,34.00
2022-08-14T10:16:33.000Z,32.30
2022-08-14T10:19:09.359Z,33.10
2022-08-14T10:21:58.657Z,32.40
2022-08-14T10:24:37.178Z,32.10
2022-08-14T10:27:05.483Z,32.00
2022-08-14T10:29:38.390Z,32.00
2022-08-14T10:32:17.778Z,31.90
2022-08-14T10:34:46.601Z,32.10
2022-08-14T10:37:23.783Z,31.70
2022-08-14T10:40:05.593Z,31.10
2022-08-14T10:42:40.354Z,31.90
2022-08-14T10:45:25.726Z,31.90
2022-08-14T10:48:08.621Z,32.40
2022-08-14T10:50:41.342Z,33.80
2022-08-14T10:53:09.381Z,33.80
2022-08-14T10:55:45.418Z,33.70
2022-08-14T10:58:13.963Z,33.30
2022-08-14T11:00:56.612Z,33.30
2022-08-14T11:03:35.993Z,34.40
2022-08-14T11:06:20.134Z,34.90
2022-08-14T11:08:48.743Z,32.40
2022-08-14T11:11:18.692Z,32.20
2022-08-14T11:13:46.485Z,32.60
2022-08-14T11:16:16.922Z,32.80
2022-08-14T11:18:50.819Z,32.90
2022-08-14T11:21:21.213Z,33.10
2022-08-14T11:23:49.376Z,32.30
2022-08-14T11:26:24.022Z,32.40
2022-08-14T11:28:52.103Z,33.20
2022-08-14T11:31:24.096Z,33.30
2022-08-14T11:33:57.873Z,33.30
2022-08-14T11:37:02.157Z,33.30
2022-08-14T11:39:33.820Z,34.10
2022-08-14T11:42:55.354Z,34.90
2022-08-14T11:44:56.614Z,34.00
2022-08-14T11:47:27.359Z,34.20
2022-08-14T11:50:13.347Z,34.10
2022-08-14T11:52:40.649Z,33.10
2022-08-14T11:55:13.493Z,34.30
2022-08-14T11:57:42.385Z,34.70
2022-08-14T12:00:31.548Z,33.90
2022-08-14T12:03:04.287Z,33.90
2022-08-14T12:05:39.694Z,34.40
2022-08-14T12:08:12.110Z,34.50
2022-08-14T12:10:43.991Z,33.10
2022-08-14T12:13:17.630Z,33.40
2022-08-14T12:15:48.938Z,32.40
2022-08-14T12:18:30.663Z,31.70
2022-08-14T12:20:59.358Z,31.80
2022-08-14T12:23:27.710Z,30.10
2022-08-14T12:26:12.169Z,30.00
2022-08-14T12:29:08.516Z,31.30
2022-08-14T12:31:44.946Z,31.50
2022-08-14T12:34:20.560Z,32.20
2022-08-14T12:36:50.321Z,32.50
2022-08-14T12:39:18.911Z,32.90
2022-08-14T12:41:57.101Z,33.50
2022-08-14T12:44:33.995Z,33.90
2022-08-14T12:47:13.508Z,33.90
2022-08-14T12:49:52.466Z,33.70
2022-08-14T12:52:41.771Z,34.00
2022-08-14T12:55:21.119Z,34.60
2022-08-14T12:57:53.506Z,34.00
2022-08-14T13:00:25.381Z,33.20
2022-08-14T13:02:55.117Z,33.20
2022-08-14T13:05:29.917Z,33.20
2022-08-14T13:07:59.080Z,32.80
2022-08-14T13:10:52.062Z,32.20
2022-08-14T13:13:19.722Z,32.40
2022-08-14T13:15:56.296Z,32.30
2022-08-14T13:18:27.961Z,31.80
2022-08-14T13:21:01.046Z,31.90
2022-08-14T13:23:33.743Z,32.20
2022-08-14T13:26:03.720Z,32.30
2022-08-14T13:28:34.285Z,32.40
2022-08-14T13:31:11.754Z,32.20
2022-08-14T13:33:40.785Z,32.00
2022-08-14T13:36:10.205Z,31.70
2022-08-14T13:38:51.132Z,31.40
2022-08-14T13:41:28.006Z,31.20
2022-08-14T13:44:00.272Z,31.20
2022-08-14T13:46:27.943Z,31.20
2022-08-14T13:48:56.355Z,30.50
2022-08-14T13:51:31.972Z,30.40
2022-08-14T13:54:10.943Z,30.10
2022-08-14T13:56:41.948Z,29.90
2022-08-14T13:59:09.843Z,29.90
2022-08-14T14:01:42.978Z,29.90
2022-08-14T14:04:19.467Z,30.00
2022-08-14T14:06:49.083Z,30.00
2022-08-14T14:09:21.421Z,30.20
2022-08-14T14:11:53.071Z,30.10
2022-08-14T14:14:45.193Z,30.50
2022-08-14T14:17:12.479Z,31.10
2022-08-14T14:19:41.379Z,31.30
2022-08-14T14:22:09.837Z,31.60
2022-08-14T14:24:37.524Z,31.50
2022-08-14T14:27:38.962Z,30.30
2022-08-14T14:29:55.496Z,29.70
2022-08-14T14:32:31.990Z,29.40
2022-08-14T14:35:02.637Z,29.90
2022-08-14T14:37:30.984Z,29.90
2022-08-14T14:40:52.590Z,29.60
2022-08-14T14:42:51.919Z,29.20
2022-08-14T14:45:23.413Z,29.00
2022-08-14T14:47:59.460Z,28.80
2022-08-14T14:50:26.564Z,28.70
2022-08-14T14:53:12.444Z,28.90
2022-08-14T14:56:48.201Z,29.20
2022-08-14T14:58:30.982Z,29.10
2022-08-14T15:01:03.727Z,29.70
2022-08-14T15:03:41.699Z,30.60
2022-08-14T15:06:09.085Z,30.00
2022-08-14T15:08:56.377Z,29.40
2022-08-14T15:11:26.202Z,29.90
2022-08-14T15:13:57.303Z,30.80
2022-08-14T15:16:24.800Z,31.00
2022-08-14T15:18:52.922Z,30.60
2022-08-14T15:21:20.022Z,31.00
2022-08-14T15:23:48.056Z,31.30
2022-08-14T15:26:30.892Z,31.50
2022-08-14T15:29:02.966Z,31.50
2022-08-14T15:31:36.081Z,31.50
2022-08-14T15:34:45.698Z,31.30
2022-08-14T15:37:00.940Z,30.10
2022-08-14T15:39:29.488Z,30.20
2022-08-14T15:42:01.907Z,30.00
2022-08-14T15:44:34.011Z,30.10
2022-08-14T15:47:06.950Z,30.10
2022-08-14T15:49:35.010Z,30.30
2022-08-14T15:52:03.429Z,30.40
2022-08-14T15:54:31.549Z,30.50
2022-08-14T15:57:08.288Z,30.00
2022-08-14T15:59:55.599Z,29.90
2022-08-14T16:02:24.411Z,29.80
2022-08-14T16:04:55.238Z,29.80
2022-08-14T16:07:25.181Z,29.60
2022-08-14T16:10:11.895Z,29.30
2022-08-14T16:12:47.412Z,28.90
2022-08-14T16:15:16.649Z,28.80
2022-08-14T16:17:44.843Z,28.10
2022-08-14T16:20:12.554Z,28.10
2022-08-14T16:23:00.571Z,28.30
2022-08-14T16:25:35.578Z,28.40
2022-08-14T16:28:03.557Z,28.30
2022-08-14T16:30:34.285Z,28.30
2022-08-14T16:33:05.306Z,28.20
2022-08-14T16:35:42.448Z,28.10
2022-08-14T16:38:46.519Z,27.60
2022-08-14T16:41:27.071Z,27.50
2022-08-14T16:44:01.254Z,27.60
2022-08-14T16:46:31.571Z,27.70
2022-08-14T16:49:00.800Z,27.60
2022-08-14T16:51:30.850Z,27.40
2022-08-14T16:54:03.635Z,27.30
2022-08-14T16:56:48.065Z,27.20
2022-08-14T16:59:20.732Z,26.80
2022-08-14T17:02:00.717Z,26.60
2022-08-14T17:04:34.615Z,26.50
2022-08-14T17:07:13.431Z,26.40
2022-08-14T17:09:45.579Z,26.30
2022-08-14T17:12:33.780Z,26.10
2022-08-14T17:15:14.882Z,25.90
2022-08-14T17:17:57.812Z,25.80
2022-08-14T17:20:53.504Z,25.70
2022-08-14T17:23:13.633Z,25.70
2022-08-14T17:25:51.249Z,25.60
2022-08-14T17:28:51.361Z,25.40
2022-08-14T17:31:12.087Z,25.20
2022-08-14T17:33:40.930Z,25.20
2022-08-14T17:36:22.462Z,25.20
2022-08-14T17:39:07.580Z,25.00
2022-08-14T17:44:48.176Z,24.90
2022-08-14T17:47:18.157Z,24.80
2022-08-14T17:49:52.158Z,24.60
2022-08-14T17:52:34.126Z,24.40
2022-08-14T17:55:06.555Z,24.30
2022-08-14T17:57:35.375Z,24.20
2022-08-14T18:00:12.494Z,24.10
2022-08-14T18:02:51.221Z,24.00
2022-08-14T18:05:23.703Z,23.90
2022-08-14T18:08:32.524Z,23.90
2022-08-14T18:10:56.417Z,23.70
2022-08-14T18:13:49.936Z,23.60
2022-08-14T18:16:19.739Z,23.50
2022-08-14T18:18:49.679Z,23.40
2022-08-14T18:21:24.074Z,23.30
2022-08-14T18:23:52.698Z,23.30
2022-08-14T18:26:37.208Z,23.20
2022-08-14T18:29:14.942Z,23.20
2022-08-14T18:31:45.453Z,23.10
2022-08-14T18:34:31.574Z,23.00
2022-08-14T18:37:14.374Z,23.00
2022-08-14T18:40:01.310Z,22.90
2022-08-14T18:42:30.557Z,22.90
2022-08-14T18:45:00.974Z,22.80
2022-08-14T18:47:32.724Z,22.80
2022-08-14T18:50:30.875Z,22.70
2022-08-14T18:53:11.119Z,22.70
2022-08-14T18:55:52.659Z,22.70
2022-08-14T18:58:28.030Z,22.60
2022-08-14T19:01:04.599Z,22.60
2022-08-14T19:03:37.066Z,22.60
2022-08-14T19:06:10.819Z,22.50
2022-08-14T19:08:47.709Z,22.50
2022-08-14T19:11:34.247Z,22.50
2022-08-14T19:14:04.772Z,22.40
2022-08-14T19:16:37.377Z,22.50
2022-08-14T19:19:12.488Z,22.40
2022-08-14T19:21:55.153Z,22.40
2022-08-14T19:24:34.474Z,22.40
2022-08-14T19:27:26.250Z,22.40
2022-08-14T19:30:23.162Z,22.40
2022-08-14T19:32:57.839Z,22.30
2022-08-14T19:35:48.676Z,22.30
2022-08-14T19:38:51.963Z,22.30
2022-08-14T19:41:40.612Z,22.40
2022-08-14T19:44:20.072Z,22.30
2022-08-14T19:47:06.176Z,22.20
2022-08-14T19:50:25.054Z,22.20
2022-08-14T19:52:39.771Z,22.10
2022-08-14T19:55:19.128Z,22.00
2022-08-14T19:57:57.963Z,22.00
2022-08-14T20:00:29.341Z,22.00
2022-08-14T20:03:12.057Z,21.90
2022-08-14T20:05:42.958Z,21.80
2022-08-14T20:10:59.869Z,21.50
2022-08-14T20:11:21.002Z,21.20
2022-08-14T20:14:20.927Z,21.00
2022-08-14T20:17:01.705Z,20.90
2022-08-14T20:19:37.582Z,20.90
2022-08-14T20:22:35.085Z,21.00
2022-08-14T20:24:56.475Z,20.90
2022-08-14T20:27:33.951Z,20.80
2022-08-14T20:30:29.827Z,20.60
2022-08-14T20:33:07.948Z,20.50
2022-08-14T20:35:43.311Z,20.40
2022-08-14T20:38:30.229Z,20.40
2022-08-14T20:41:00.087Z,20.40
2022-08-14T20:43:52.771Z,20.30
2022-08-14T20:46:23.501Z,20.40
2022-08-14T20:49:06.640Z,20.50
2022-08-14T20:51:37.157Z,20.50
2022-08-14T20:54:09.924Z,20.60
2022-08-14T20:56:40.499Z,20.60
2022-08-14T20:59:19.418Z,20.60
2022-08-14T21:01:55.221Z,20.60
2022-08-14T21:04:31.997Z,20.60
2022-08-14T21:07:24.746Z,20.50
2022-08-14T21:10:33.758Z,20.50
2022-08-14T21:13:26.067Z,20.40
2022-08-14T21:15:56.883Z,20.50
2022-08-14T21:18:31.818Z,20.50
2022-08-14T21:21:07.023Z,20.50
2022-08-14T21:23:54.077Z,20.50
2022-08-14T21:26:50.537Z,20.40
2022-08-14T21:29:23.735Z,20.40
2022-08-14T21:31:55.844Z,20.40
2022-08-14T21:34:27.102Z,20.40
2022-08-14T21:36:57.811Z,20.40
2022-08-14T21:39:25.064Z,20.30
2022-08-14T21:41:58.688Z,20.30
2022-08-14T21:44:42.675Z,20.30
2022-08-14T21:47:13.271Z,20.40
2022-08-14T21:49:46.146Z,20.40
2022-08-14T21:52:49.723Z,20.40
2022-08-14T21:55:09.881Z,20.40
2022-08-14T21:57:56.712Z,20.40
2022-08-14T22:00:39.531Z,20.40
2022-08-14T22:03:13.587Z,20.30
2022-08-14T22:05:42.235Z,20.20
2022-08-14T22:08:14.051Z,20.20
2022-08-14T22:10:46.925Z,20.10
2022-08-14T22:13:22.594Z,20.10
2022-08-14T22:15:54.322Z,20.10
2022-08-14T22:18:25.708Z,20.00
2022-08-14T22:20:56.433Z,20.10
2022-08-14T22:23:25.876Z,20.10
2022-08-14T22:25:53.612Z,20.30
2022-08-14T22:28:25.145Z,20.40
2022-08-14T22:30:55.002Z,20.30
2022-08-14T22:33:26.654Z,20.20
2022-08-14T22:35:59.544Z,20.10
2022-08-14T22:38:36.779Z,20.00
2022-08-14T22:41:26.981Z,20.00
2022-08-14T22:43:59.232Z,19.90
2022-08-14T22:46:27.139Z,19.80
2022-08-14T22:48:55.072Z,19.80
2022-08-14T22:51:27.488Z,19.80
2022-08-14T22:53:56.103Z,19.70
2022-08-14T22:56:30.041Z,19.70
2022-08-14T22:59:01.217Z,19.70
2022-08-14T23:01:56.676Z,19.70
2022-08-14T23:04:35.033Z,19.70
2022-08-14T23:07:21.848Z,19.60
2022-08-14T23:09:56.210Z,19.60
2022-08-14T23:12:28.756Z,19.70
2022-08-14T23:14:57.352Z,19.60
2022-08-14T23:17:24.455Z,19.60
2022-08-14T23:19:56.471Z,19.50
2022-08-14T23:22:26.103Z,19.50
2022-08-14T23:24:58.021Z,19.40
2022-08-14T23:27:32.017Z,19.40
2022-08-14T23:30:31.498Z,19.40
2022-08-14T23:33:02.147Z,19.40
2022-08-14T23:35:32.975Z,19.30
2022-08-14T23:38:01.897Z,19.20
2022-08-14T23:40:31.134Z,19.10
2022-08-14T23:43:02.121Z,19.10
2022-08-14T23:45:37.220Z,19.10
2022-08-14T23:48:05.346Z,19.00
2022-08-14T23:50:38.827Z,19.00
2022-08-14T23:53:47.109Z,19.00
2022-08-14T23:56:08.583Z,18.90
2022-08-14T23:58:37.009Z,18.80
